Time;durP1;ratioP1;P1;durP2;ratioP2;P2;SDS_P1;SDS_P2;PMS_P1;PMS_P2;Temp;Humidity;BMP_temperature;BMP_pressure;BME280_temperature;BME280_humidity;BME280_pressure;Samples;Min_cycle;Max_cycle;Signal;HPM_P1;HPM_P2
2021/01/06 00:01:51;;;;;;;25.60;23.98;;;;;;;;;;5034746;28;20209;-83
2021/01/06 00:04:19;;;;;;;24.48;23.08;;;;;;;;;;5034590;28;20206;-82
2021/01/06 00:06:46;;;;;;;25.92;24.13;;;;;;;;;;5034589;28;20195;-82
2021/01/06 00:09:13;;;;;;;26.73;24.77;;;;;;;;;;5034985;28;20198;-83
2021/01/06 00:11:40;;;;;;;25.35;23.80;;;;;;;;;;5034942;28;20212;-83
2021/01/06 00:14:08;;;;;;;24.77;23.25;;;;;;;;;;5034905;28;20234;-83
2021/01/06 00:16:34;;;;;;;25.15;23.65;;;;;;;;;;5035444;28;20515;-82
2021/01/06 00:19:01;;;;;;;26.25;24.30;;;;;;;;;;5034556;28;20186;-82
2021/01/06 00:21:29;;;;;;;25.08;23.52;;;;;;;;;;5034522;28;20271;-82
2021/01/06 00:23:56;;;;;;;26.70;24.85;;;;;;;;;;5034466;28;20288;-82
2021/01/06 00:26:24;;;;;;;25.60;23.80;;;;;;;;;;5034493;28;20193;-82
2021/01/06 00:28:50;;;;;;;25.98;24.17;;;;;;;;;;5035139;28;20210;-82
2021/01/06 00:31:17;;;;;;;26.10;24.30;;;;;;;;;;5035513;28;20276;-82
2021/01/06 00:33:44;;;;;;;28.95;26.90;;;;;;;;;;5034208;28;20232;-82
2021/01/06 00:36:14;;;;;;;26.75;24.95;;;;;;;;;;5034555;28;20187;-82
2021/01/06 00:38:41;;;;;;;26.70;24.90;;;;;;;;;;5033765;28;20564;-82
2021/01/06 00:41:08;;;;;;;27.60;25.70;;;;;;;;;;5034178;28;20297;-82
2021/01/06 00:43:35;;;;;;;29.10;26.65;;;;;;;;;;5034002;28;20195;-82
2021/01/06 00:46:02;;;;;;;28.90;26.90;;;;;;;;;;5034444;28;20190;-82
2021/01/06 00:48:29;;;;;;;29.05;27.00;;;;;;;;;;5034421;28;20187;-82
2021/01/06 00:50:56;;;;;;;29.60;27.30;;;;;;;;;;5033976;28;20193;-82
2021/01/06 00:53:23;;;;;;;29.52;27.48;;;;;;;;;;5034010;28;20267;-82
2021/01/06 00:55:52;;;;;;;30.60;27.95;;;;;;;;;;5033422;28;20193;-82
2021/01/06 00:58:19;;;;;;;29.98;27.77;;;;;;;;;;5034108;28;20189;-82
2021/01/06 01:00:46;;;;;;;30.40;28.10;;;;;;;;;;5034329;28;20267;-82
2021/01/06 01:03:13;;;;;;;28.35;26.42;;;;;;;;;;5034027;28;20194;-82
2021/01/06 01:05:40;;;;;;;28.90;26.63;;;;;;;;;;5034535;28;20191;-82
2021/01/06 01:08:08;;;;;;;28.60;26.60;;;;;;;;;;5034189;28;20201;-82
2021/01/06 01:10:36;;;;;;;27.67;25.50;;;;;;;;;;5033722;28;20639;-82
2021/01/06 01:13:05;;;;;;;28.67;26.48;;;;;;;;;;5034237;28;20267;-82
2021/01/06 01:15:33;;;;;;;28.13;26.13;;;;;;;;;;5034207;28;20557;-82
2021/01/06 01:18:00;;;;;;;28.17;25.88;;;;;;;;;;5033665;28;20201;-82
2021/01/06 01:20:28;;;;;;;27.45;25.40;;;;;;;;;;5034085;28;20190;-82
2021/01/06 01:22:54;;;;;;;28.75;26.00;;;;;;;;;;5034167;28;20190;-82
2021/01/06 01:25:23;;;;;;;30.42;28.23;;;;;;;;;;5034066;28;20634;-82
2021/01/06 01:27:49;;;;;;;28.85;26.63;;;;;;;;;;5034043;28;20190;-82
2021/01/06 01:30:19;;;;;;;27.58;25.52;;;;;;;;;;5032907;28;20244;-82
2021/01/06 01:32:47;;;;;;;27.90;26.00;;;;;;;;;;5033642;28;20665;-82
2021/01/06 01:35:15;;;;;;;26.80;24.90;;;;;;;;;;5033581;28;20190;-82
2021/01/06 01:37:43;;;;;;;27.27;25.27;;;;;;;;;;5033519;28;20226;-82
2021/01/06 01:40:11;;;;;;;26.58;24.65;;;;;;;;;;5033584;28;20231;-82
2021/01/06 01:42:38;;;;;;;26.55;24.65;;;;;;;;;;5033771;28;20194;-82
2021/01/06 01:45:07;;;;;;;26.63;24.83;;;;;;;;;;5034453;28;20198;-82
2021/01/06 01:47:42;;;;;;;27.23;25.40;;;;;;;;;;5033292;28;20191;-82
2021/01/06 01:50:09;;;;;;;27.23;25.33;;;;;;;;;;5033743;28;20213;-82
2021/01/06 01:52:37;;;;;;;25.25;23.55;;;;;;;;;;5033737;28;20241;-82
2021/01/06 01:55:05;;;;;;;27.05;25.15;;;;;;;;;;5033855;28;20542;-82
2021/01/06 01:57:35;;;;;;;26.52;24.25;;;;;;;;;;5033742;28;20190;-82
2021/01/06 02:00:05;;;;;;;27.90;25.85;;;;;;;;;;5032821;28;20191;-82
2021/01/06 02:02:34;;;;;;;27.20;25.10;;;;;;;;;;5033999;28;20186;-82
2021/01/06 02:05:07;;;;;;;27.00;25.20;;;;;;;;;;5034072;28;20193;-82
2021/01/06 02:07:38;;;;;;;26.30;24.38;;;;;;;;;;5034724;28;20214;-82
2021/01/06 02:10:08;;;;;;;27.02;25.10;;;;;;;;;;5036730;28;20601;-82
2021/01/06 02:12:38;;;;;;;26.52;24.73;;;;;;;;;;5036814;28;20703;-82
2021/01/06 02:15:09;;;;;;;26.05;24.35;;;;;;;;;;5036791;28;20195;-82
2021/01/06 02:17:36;;;;;;;27.42;25.45;;;;;;;;;;5037348;28;20196;-82
2021/01/06 02:20:05;;;;;;;26.15;24.35;;;;;;;;;;5036719;28;20190;-82
2021/01/06 02:22:33;;;;;;;26.88;25.00;;;;;;;;;;5037097;28;20201;-82
2021/01/06 02:25:00;;;;;;;26.63;24.73;;;;;;;;;;5037169;28;20204;-82
2021/01/06 02:27:27;;;;;;;25.77;23.98;;;;;;;;;;5036717;28;20636;-82
2021/01/06 02:29:54;;;;;;;26.77;24.67;;;;;;;;;;5036916;28;20186;-83
2021/01/06 02:32:21;;;;;;;27.55;25.50;;;;;;;;;;5036879;28;20569;-82
2021/01/06 02:34:48;;;;;;;26.98;25.00;;;;;;;;;;5036333;28;20191;-82
2021/01/06 02:37:14;;;;;;;26.40;24.50;;;;;;;;;;5036749;28;20222;-82
2021/01/06 02:39:42;;;;;;;25.20;23.70;;;;;;;;;;5036668;28;20198;-82
2021/01/06 02:42:09;;;;;;;25.42;23.60;;;;;;;;;;5036769;28;20197;-82
2021/01/06 02:44:36;;;;;;;25.88;23.95;;;;;;;;;;5036456;28;20213;-82
2021/01/06 02:47:03;;;;;;;26.02;24.10;;;;;;;;;;5037354;28;20523;-82
2021/01/06 02:49:30;;;;;;;25.80;24.10;;;;;;;;;;5034798;28;20202;-82
2021/01/06 02:52:00;;;;;;;24.83;23.20;;;;;;;;;;5035032;28;20278;-82
2021/01/06 02:54:29;;;;;;;25.80;23.92;;;;;;;;;;5036566;28;20191;-82
2021/01/06 02:56:59;;;;;;;25.90;24.20;;;;;;;;;;5036159;28;20191;-81
2021/01/06 02:59:28;;;;;;;29.88;28.05;;;;;;;;;;5036395;28;20194;-81
2021/01/06 03:01:55;;;;;;;25.52;23.83;;;;;;;;;;5036043;28;20189;-82
2021/01/06 03:04:24;;;;;;;26.60;24.90;;;;;;;;;;5035963;28;20194;-82
2021/01/06 03:06:54;;;;;;;26.60;24.83;;;;;;;;;;5036261;28;20248;-82
2021/01/06 03:09:27;;;;;;;26.52;24.63;;;;;;;;;;5035036;28;20205;-81
2021/01/06 03:11:54;;;;;;;26.48;24.45;;;;;;;;;;5037630;28;20191;-83
2021/01/06 03:14:22;;;;;;;26.75;24.75;;;;;;;;;;5036222;28;20198;-82
2021/01/06 03:16:49;;;;;;;28.48;26.40;;;;;;;;;;5036598;28;20240;-82
2021/01/06 03:19:18;;;;;;;25.75;24.05;;;;;;;;;;5034524;28;20195;-82
2021/01/06 03:21:46;;;;;;;25.70;23.98;;;;;;;;;;5036001;28;20203;-82
2021/01/06 03:24:13;;;;;;;26.77;24.88;;;;;;;;;;5035892;28;20202;-82
2021/01/06 03:26:41;;;;;;;26.45;24.65;;;;;;;;;;5035501;28;20253;-82
2021/01/06 03:29:08;;;;;;;26.95;25.10;;;;;;;;;;5034691;28;20208;-82
2021/01/06 03:31:38;;;;;;;27.02;25.02;;;;;;;;;;5034716;28;20567;-82
2021/01/06 03:34:07;;;;;;;27.98;26.00;;;;;;;;;;5035744;28;20223;-82
2021/01/06 03:36:39;;;;;;;26.23;24.60;;;;;;;;;;5035684;28;20209;-82
2021/01/06 03:39:07;;;;;;;25.70;23.90;;;;;;;;;;5035330;28;20190;-82
2021/01/06 03:41:35;;;;;;;27.15;25.25;;;;;;;;;;5035692;28;20190;-82
2021/01/06 03:44:07;;;;;;;26.25;24.42;;;;;;;;;;5034032;28;20245;-82
2021/01/06 03:46:35;;;;;;;26.15;24.45;;;;;;;;;;5035482;28;20193;-82
2021/01/06 03:49:05;;;;;;;26.77;25.08;;;;;;;;;;5035039;28;20244;-82
2021/01/06 03:51:34;;;;;;;28.40;26.30;;;;;;;;;;5035352;28;20195;-82
2021/01/06 03:54:05;;;;;;;26.60;24.60;;;;;;;;;;5035362;28;20713;-82
2021/01/06 03:56:36;;;;;;;26.50;24.70;;;;;;;;;;5035129;28;20194;-82
2021/01/06 03:59:06;;;;;;;28.92;26.83;;;;;;;;;;5033839;28;20209;-82
2021/01/06 04:01:38;;;;;;;30.55;28.40;;;;;;;;;;5035330;28;20663;-82
2021/01/06 04:04:09;;;;;;;28.63;26.60;;;;;;;;;;5035169;28;20199;-82
2021/01/06 04:06:37;;;;;;;28.15;26.05;;;;;;;;;;5033787;28;20272;-83
2021/01/06 04:09:06;;;;;;;30.35;28.08;;;;;;;;;;5035023;28;20189;-82
2021/01/06 04:11:34;;;;;;;29.58;27.40;;;;;;;;;;5034698;28;20194;-82
2021/01/06 04:14:01;;;;;;;31.30;29.00;;;;;;;;;;5035339;28;20229;-83
2021/01/06 04:16:29;;;;;;;30.48;28.30;;;;;;;;;;5034591;28;20193;-82
2021/01/06 04:18:56;;;;;;;31.88;29.48;;;;;;;;;;5035147;28;20577;-82
2021/01/06 04:21:24;;;;;;;30.52;28.25;;;;;;;;;;5034177;28;20209;-82
2021/01/06 04:23:51;;;;;;;31.73;29.52;;;;;;;;;;5034498;28;20220;-82
2021/01/06 04:26:19;;;;;;;29.88;27.58;;;;;;;;;;5034777;28;20196;-82
2021/01/06 04:28:45;;;;;;;29.88;27.80;;;;;;;;;;5034377;28;20185;-82
2021/01/06 04:31:16;;;;;;;30.27;28.08;;;;;;;;;;5034620;28;20189;-83
2021/01/06 04:33:44;;;;;;;29.52;27.23;;;;;;;;;;5034481;28;20274;-82
2021/01/06 04:36:12;;;;;;;31.15;28.85;;;;;;;;;;5034671;28;20193;-82
2021/01/06 04:38:44;;;;;;;29.38;27.20;;;;;;;;;;5034584;28;20691;-82
2021/01/06 04:41:20;;;;;;;29.63;27.48;;;;;;;;;;5034681;28;20237;-82
2021/01/06 04:43:51;;;;;;;29.67;27.27;;;;;;;;;;5033769;28;20204;-83
2021/01/06 04:46:29;;;;;;;30.60;28.30;;;;;;;;;;5034032;28;20208;-83
2021/01/06 04:48:59;;;;;;;31.02;28.52;;;;;;;;;;5034173;28;20189;-83
2021/01/06 04:51:32;;;;;;;28.00;26.08;;;;;;;;;;5034449;28;20201;-83
2021/01/06 04:54:14;;;;;;;28.83;26.73;;;;;;;;;;5016946;28;20230;-82
2021/01/06 04:56:59;;;;;;;30.45;28.10;;;;;;;;;;5034212;28;20201;-83
2021/01/06 04:59:34;;;;;;;29.30;27.00;;;;;;;;;;5034065;28;20219;-83
2021/01/06 05:02:07;;;;;;;28.30;26.30;;;;;;;;;;5034740;28;20200;-83
2021/01/06 05:05:04;;;;;;;28.20;26.10;;;;;;;;;;5033581;28;20205;-83
2021/01/06 05:07:37;;;;;;;27.95;25.95;;;;;;;;;;4973474;28;20287;-83
2021/01/06 05:10:09;;;;;;;26.75;24.75;;;;;;;;;;4973587;28;20223;-83
2021/01/06 05:12:40;;;;;;;29.70;27.48;;;;;;;;;;4973172;28;20219;-82
2021/01/06 05:15:21;;;;;;;30.15;27.75;;;;;;;;;;4973239;28;20235;-83
2021/01/06 05:17:48;;;;;;;29.88;27.70;;;;;;;;;;4973189;28;20191;-83
2021/01/06 05:20:15;;;;;;;31.48;29.08;;;;;;;;;;4973305;28;20210;-83
2021/01/06 05:22:42;;;;;;;30.70;28.38;;;;;;;;;;4973403;28;20199;-82
2021/01/06 05:25:13;;;;;;;30.58;28.17;;;;;;;;;;4973282;28;20292;-83
2021/01/06 05:27:42;;;;;;;29.98;27.35;;;;;;;;;;4973071;28;20223;-83
2021/01/06 05:30:15;;;;;;;28.83;26.48;;;;;;;;;;4973756;28;20600;-83
2021/01/06 05:32:42;;;;;;;30.75;28.15;;;;;;;;;;4973358;28;20215;-82
2021/01/06 05:35:10;;;;;;;31.38;28.77;;;;;;;;;;4973244;28;20203;-83
2021/01/06 05:37:38;;;;;;;31.95;29.25;;;;;;;;;;4957057;28;20299;-83
2021/01/06 05:40:06;;;;;;;30.73;28.23;;;;;;;;;;4972977;28;20194;-83
2021/01/06 05:42:34;;;;;;;32.13;29.35;;;;;;;;;;5030153;28;20200;-82
2021/01/06 05:45:04;;;;;;;32.75;30.10;;;;;;;;;;5037487;28;20201;-83
2021/01/06 05:47:33;;;;;;;31.75;29.15;;;;;;;;;;5037441;28;20197;-82
2021/01/06 05:50:02;;;;;;;29.65;27.35;;;;;;;;;;5037563;28;20191;-82
2021/01/06 05:52:31;;;;;;;31.13;28.40;;;;;;;;;;5037358;28;20264;-82
2021/01/06 05:55:01;;;;;;;33.13;30.15;;;;;;;;;;5037763;28;20185;-82
2021/01/06 05:57:37;;;;;;;30.95;28.60;;;;;;;;;;5037698;28;20197;-82
2021/01/06 06:00:10;;;;;;;31.73;29.20;;;;;;;;;;5037397;28;20197;-82
2021/01/06 06:02:41;;;;;;;28.95;26.85;;;;;;;;;;5037188;28;20194;-82
2021/01/06 06:05:16;;;;;;;30.95;28.45;;;;;;;;;;5037463;28;20197;-82
2021/01/06 06:07:56;;;;;;;29.73;27.67;;;;;;;;;;5037387;28;20194;-83
2021/01/06 06:10:41;;;;;;;30.90;28.50;;;;;;;;;;5036924;28;20208;-82
2021/01/06 06:13:16;;;;;;;29.73;27.33;;;;;;;;;;5036850;28;20229;-83
2021/01/06 06:16:04;;;;;;;29.80;27.63;;;;;;;;;;5037012;28;20216;-82
2021/01/06 06:18:49;;;;;;;29.38;27.10;;;;;;;;;;5036937;28;20635;-82
2021/01/06 06:21:21;;;;;;;29.92;27.63;;;;;;;;;;5037697;28;20630;-83
2021/01/06 06:24:05;;;;;;;32.15;29.45;;;;;;;;;;5037370;28;20191;-82
2021/01/06 06:26:40;;;;;;;31.40;28.83;;;;;;;;;;5036766;28;20658;-83
2021/01/06 06:29:14;;;;;;;30.20;27.90;;;;;;;;;;5035748;28;20201;-83
2021/01/06 06:31:46;;;;;;;30.33;28.05;;;;;;;;;;5036907;28;20209;-82
2021/01/06 06:34:14;;;;;;;31.20;28.70;;;;;;;;;;5035844;28;20599;-82
2021/01/06 06:36:44;;;;;;;32.92;30.02;;;;;;;;;;5036610;28;20279;-82
2021/01/06 06:39:15;;;;;;;30.48;28.20;;;;;;;;;;5036722;28;20193;-83
2021/01/06 06:41:42;;;;;;;29.45;27.02;;;;;;;;;;5036494;28;20296;-82
2021/01/06 06:44:25;;;;;;;30.98;28.65;;;;;;;;;;5036724;28;20540;-82
2021/01/06 06:46:55;;;;;;;34.42;31.73;;;;;;;;;;5036165;28;20189;-82
2021/01/06 06:49:25;;;;;;;32.80;30.35;;;;;;;;;;5036615;28;20209;-82
2021/01/06 06:51:55;;;;;;;31.98;29.48;;;;;;;;;;5034957;28;20705;-82
2021/01/06 06:54:25;;;;;;;30.70;28.40;;;;;;;;;;5036201;28;20224;-82
2021/01/06 06:56:53;;;;;;;33.05;30.40;;;;;;;;;;5036021;28;20229;-82
2021/01/06 06:59:22;;;;;;;32.78;29.75;;;;;;;;;;5036063;28;20234;-82
2021/01/06 07:01:49;;;;;;;33.85;31.05;;;;;;;;;;5036463;28;20190;-82
2021/01/06 07:04:19;;;;;;;31.98;29.27;;;;;;;;;;5036072;28;20205;-82
2021/01/06 07:06:51;;;;;;;33.97;30.98;;;;;;;;;;5039868;28;20272;-82
2021/01/06 07:09:20;;;;;;;32.88;29.98;;;;;;;;;;5036083;28;20208;-82
2021/01/06 07:11:48;;;;;;;36.42;32.78;;;;;;;;;;5036240;28;20189;-82
2021/01/06 07:14:20;;;;;;;32.38;29.77;;;;;;;;;;5035808;28;20305;-83
2021/01/06 07:16:57;;;;;;;34.45;31.58;;;;;;;;;;5036118;28;20189;-81
2021/01/06 07:19:27;;;;;;;31.52;28.92;;;;;;;;;;5035522;28;20222;-82
2021/01/06 07:21:55;;;;;;;34.10;31.27;;;;;;;;;;5035854;28;20194;-82
2021/01/06 07:24:24;;;;;;;35.55;32.40;;;;;;;;;;5035573;28;20197;-82
2021/01/06 07:26:53;;;;;;;31.08;28.58;;;;;;;;;;5035506;28;20262;-82
2021/01/06 07:29:21;;;;;;;32.00;29.40;;;;;;;;;;5035582;28;20190;-82
2021/01/06 07:31:56;;;;;;;32.35;29.58;;;;;;;;;;5035531;28;20199;-81
2021/01/06 07:34:24;;;;;;;33.15;30.17;;;;;;;;;;5035442;28;20302;-82
2021/01/06 07:36:53;;;;;;;29.67;27.27;;;;;;;;;;5035257;28;20225;-82
2021/01/06 07:39:21;;;;;;;31.85;29.30;;;;;;;;;;5034428;28;20251;-82
2021/01/06 07:41:49;;;;;;;32.90;30.10;;;;;;;;;;5035088;28;20209;-82
2021/01/06 07:44:21;;;;;;;34.03;31.33;;;;;;;;;;5035394;28;20193;-81
2021/01/06 07:46:51;;;;;;;31.58;29.27;;;;;;;;;;5034969;28;20196;-82
2021/01/06 07:49:35;;;;;;;31.52;29.02;;;;;;;;;;5035432;28;20212;-82
2021/01/06 07:52:07;;;;;;;31.77;29.27;;;;;;;;;;5025113;28;20624;-82
2021/01/06 07:54:36;;;;;;;30.20;27.90;;;;;;;;;;5034963;28;20283;-78
2021/01/06 07:57:09;;;;;;;31.38;28.90;;;;;;;;;;5034902;28;20190;-78
2021/01/06 07:59:45;;;;;;;31.70;29.20;;;;;;;;;;5034811;28;20190;-77
2021/01/06 08:02:14;;;;;;;31.85;29.27;;;;;;;;;;5034590;28;20264;-82
2021/01/06 08:04:46;;;;;;;29.33;27.05;;;;;;;;;;5034131;28;20230;-82
2021/01/06 08:07:19;;;;;;;30.15;27.88;;;;;;;;;;5034801;28;20286;-79
2021/01/06 08:09:46;;;;;;;30.02;27.83;;;;;;;;;;5034702;28;20276;-77
2021/01/06 08:12:21;;;;;;;31.08;28.73;;;;;;;;;;5034563;28;20185;-78
2021/01/06 08:14:48;;;;;;;28.58;26.48;;;;;;;;;;5034654;28;20261;-78
2021/01/06 08:17:19;;;;;;;27.20;25.35;;;;;;;;;;5034526;28;20186;-78
2021/01/06 08:19:52;;;;;;;32.15;29.75;;;;;;;;;;5034153;28;20225;-78
2021/01/06 08:22:24;;;;;;;29.60;27.15;;;;;;;;;;5034398;28;20628;-78
2021/01/06 08:24:52;;;;;;;30.52;28.25;;;;;;;;;;5034566;28;20355;-78
2021/01/06 08:27:29;;;;;;;29.20;27.00;;;;;;;;;;5034257;28;20189;-77
2021/01/06 08:30:09;;;;;;;30.23;27.65;;;;;;;;;;5034112;28;20189;-78
2021/01/06 08:32:36;;;;;;;29.52;27.15;;;;;;;;;;5034308;28;20213;-78
2021/01/06 08:35:07;;;;;;;28.05;25.65;;;;;;;;;;5034013;28;20739;-78
2021/01/06 08:37:34;;;;;;;29.52;27.23;;;;;;;;;;5034249;28;20315;-78
2021/01/06 08:40:02;;;;;;;28.92;26.92;;;;;;;;;;5034320;28;20274;-77
2021/01/06 08:42:41;;;;;;;28.83;26.60;;;;;;;;;;5033947;28;20674;-77
2021/01/06 08:45:14;;;;;;;29.10;26.80;;;;;;;;;;5034193;28;20193;-77
2021/01/06 08:47:41;;;;;;;29.48;27.27;;;;;;;;;;5034177;28;20189;-76
2021/01/06 08:50:25;;;;;;;29.55;27.45;;;;;;;;;;5031183;28;20228;-77
2021/01/06 08:52:53;;;;;;;28.00;26.02;;;;;;;;;;5033927;28;20238;-78
2021/01/06 08:55:22;;;;;;;28.77;26.67;;;;;;;;;;5033940;28;20223;-81
2021/01/06 08:57:58;;;;;;;29.48;27.27;;;;;;;;;;5034121;28;20196;-80
2021/01/06 09:00:26;;;;;;;31.33;28.73;;;;;;;;;;5034108;28;20189;-78
2021/01/06 09:02:54;;;;;;;28.27;26.27;;;;;;;;;;5033794;28;20647;-79
2021/01/06 09:05:51;;;;;;;30.58;28.33;;;;;;;;;;5033670;28;20220;-81
2021/01/06 09:08:19;;;;;;;31.35;29.05;;;;;;;;;;4972848;28;20207;-78
2021/01/06 09:10:55;;;;;;;29.35;27.10;;;;;;;;;;4972998;28;20213;-79
2021/01/06 09:13:29;;;;;;;29.63;27.42;;;;;;;;;;4972686;28;20218;-78
2021/01/06 09:16:01;;;;;;;30.52;28.17;;;;;;;;;;4972412;28;20734;-78
2021/01/06 09:18:31;;;;;;;29.88;27.67;;;;;;;;;;4976699;28;20203;-77
2021/01/06 09:21:17;;;;;;;29.80;27.38;;;;;;;;;;4977105;28;20192;-83
2021/01/06 09:23:47;;;;;;;29.65;27.45;;;;;;;;;;4976864;28;20327;-80
2021/01/06 09:26:15;;;;;;;30.38;28.17;;;;;;;;;;4976588;28;20194;-79
2021/01/06 09:28:44;;;;;;;28.95;26.67;;;;;;;;;;4976428;28;20203;-77
2021/01/06 09:31:13;;;;;;;30.10;27.90;;;;;;;;;;4977527;28;20192;-79
2021/01/06 09:33:40;;;;;;;31.35;29.05;;;;;;;;;;4976555;28;20300;-79
2021/01/06 09:36:08;;;;;;;30.23;28.10;;;;;;;;;;4960613;28;20206;-81
2021/01/06 09:38:36;;;;;;;28.90;26.60;;;;;;;;;;4976376;28;20215;-81
2021/01/06 09:41:06;;;;;;;28.00;25.90;;;;;;;;;;4976001;28;20572;-76
2021/01/06 09:43:38;;;;;;;29.05;26.95;;;;;;;;;;5037520;28;20202;-76
2021/01/06 09:46:12;;;;;;;28.20;26.10;;;;;;;;;;5037145;28;20269;-79
2021/01/06 09:48:40;;;;;;;28.48;26.38;;;;;;;;;;5037309;28;20197;-79
2021/01/06 09:51:08;;;;;;;28.80;26.60;;;;;;;;;;5036957;28;20216;-79
2021/01/06 09:53:35;;;;;;;28.88;26.85;;;;;;;;;;5037252;28;20369;-83
2021/01/06 09:56:01;;;;;;;28.90;26.80;;;;;;;;;;5036953;28;20194;-76
2021/01/06 09:58:31;;;;;;;28.48;26.45;;;;;;;;;;5037188;28;20191;-77
2021/01/06 10:01:08;;;;;;;27.60;25.67;;;;;;;;;;5037681;28;20196;-77
2021/01/06 10:03:37;;;;;;;28.52;26.42;;;;;;;;;;5036945;28;20197;-77
2021/01/06 10:06:15;;;;;;;28.30;26.30;;;;;;;;;;5037593;28;20193;-93
2021/01/06 10:08:45;;;;;;;28.33;26.33;;;;;;;;;;5037171;28;20197;-78
2021/01/06 10:11:15;;;;;;;28.05;26.00;;;;;;;;;;5036983;28;20195;-78
2021/01/06 10:13:53;;;;;;;28.25;26.02;;;;;;;;;;5036755;28;20691;-78
2021/01/06 10:16:23;;;;;;;28.70;26.40;;;;;;;;;;5035469;28;20562;-78
2021/01/06 10:19:00;;;;;;;27.65;25.50;;;;;;;;;;5036511;28;20224;-78
2021/01/06 10:21:33;;;;;;;28.63;26.20;;;;;;;;;;5036771;28;20196;-78
2021/01/06 10:24:06;;;;;;;28.70;26.60;;;;;;;;;;5036536;28;20190;-78
2021/01/06 10:26:42;;;;;;;28.92;26.73;;;;;;;;;;5036629;28;20196;-78
2021/01/06 10:29:14;;;;;;;28.58;26.20;;;;;;;;;;5036620;28;20636;-78
2021/01/06 10:31:59;;;;;;;27.33;25.02;;;;;;;;;;5036717;28;20544;-80
2021/01/06 10:34:33;;;;;;;27.65;25.50;;;;;;;;;;5036217;28;20223;-81
2021/01/06 10:37:18;;;;;;;27.45;25.35;;;;;;;;;;5036368;28;20294;-78
2021/01/06 10:39:46;;;;;;;26.48;24.45;;;;;;;;;;5026190;28;20202;-78
2021/01/06 10:42:27;;;;;;;26.90;24.90;;;;;;;;;;5035796;28;20197;-79
2021/01/06 10:44:55;;;;;;;28.90;26.50;;;;;;;;;;5035611;28;20213;-78
2021/01/06 10:47:38;;;;;;;29.08;26.83;;;;;;;;;;5035893;28;20194;-79
2021/01/06 10:50:15;;;;;;;28.40;26.17;;;;;;;;;;5036333;28;20629;-79
2021/01/06 10:53:00;;;;;;;27.98;26.10;;;;;;;;;;5035281;28;20695;-79
2021/01/06 10:55:37;;;;;;;28.13;26.02;;;;;;;;;;5053099;28;20185;-80
2021/01/06 10:58:10;;;;;;;29.30;27.20;;;;;;;;;;5044071;28;20239;-79
2021/01/06 11:00:47;;;;;;;27.90;25.90;;;;;;;;;;5049953;28;20189;-80
2021/01/06 11:03:23;;;;;;;27.85;25.73;;;;;;;;;;5037586;28;20185;-79
2021/01/06 11:06:02;;;;;;;29.65;27.38;;;;;;;;;;5035883;28;20197;-79
2021/01/06 11:08:53;;;;;;;27.98;25.95;;;;;;;;;;5035488;28;20196;-79
2021/01/06 11:11:29;;;;;;;26.90;24.90;;;;;;;;;;5035824;28;20228;-79
2021/01/06 11:14:03;;;;;;;27.30;25.40;;;;;;;;;;5034704;28;20227;-79
2021/01/06 11:16:36;;;;;;;27.58;25.60;;;;;;;;;;5034655;28;20244;-79
2021/01/06 11:19:02;;;;;;;27.30;25.30;;;;;;;;;;5034021;28;20198;-77
2021/01/06 11:21:39;;;;;;;27.58;25.58;;;;;;;;;;5035588;28;20193;-82
2021/01/06 11:24:21;;;;;;;28.45;26.42;;;;;;;;;;5035771;28;20197;-84
2021/01/06 11:26:51;;;;;;;27.77;25.65;;;;;;;;;;5035045;28;20216;-77
2021/01/06 11:29:23;;;;;;;27.13;25.17;;;;;;;;;;5035166;28;20651;-77
2021/01/06 11:32:20;;;;;;;27.65;25.67;;;;;;;;;;5035104;28;20197;-77
2021/01/06 11:34:51;;;;;;;28.90;26.65;;;;;;;;;;5035155;28;20218;-77
2021/01/06 11:37:29;;;;;;;27.42;25.52;;;;;;;;;;5035103;28;20232;-77
2021/01/06 11:39:56;;;;;;;26.52;24.63;;;;;;;;;;5034311;28;20190;-77
2021/01/06 11:42:43;;;;;;;28.42;26.35;;;;;;;;;;5034827;28;20641;-77
2021/01/06 11:45:12;;;;;;;26.33;24.30;;;;;;;;;;5034661;28;20195;-77
2021/01/06 11:47:46;;;;;;;25.95;24.05;;;;;;;;;;5034797;28;20193;-78
2021/01/06 11:50:34;;;;;;;29.73;27.63;;;;;;;;;;5033108;28;20247;-78
2021/01/06 11:53:12;;;;;;;27.33;25.40;;;;;;;;;;5034335;28;20241;-77
2021/01/06 11:55:41;;;;;;;28.05;26.00;;;;;;;;;;5034738;28;20198;-77
2021/01/06 11:58:25;;;;;;;27.42;25.52;;;;;;;;;;5034778;28;20193;-77
2021/01/06 12:01:07;;;;;;;26.90;25.00;;;;;;;;;;5034862;28;20193;-77
2021/01/06 12:03:42;;;;;;;27.58;25.45;;;;;;;;;;5034430;28;20655;-77
2021/01/06 12:06:11;;;;;;;26.55;24.63;;;;;;;;;;5034534;28;20189;-78
2021/01/06 12:08:52;;;;;;;27.52;25.73;;;;;;;;;;5034787;28;20185;-77
2021/01/06 12:11:22;;;;;;;28.38;26.38;;;;;;;;;;5034266;28;20576;-78
2021/01/06 12:13:51;;;;;;;29.17;26.88;;;;;;;;;;5034666;28;20684;-77
2021/01/06 12:16:21;;;;;;;29.23;26.77;;;;;;;;;;5034453;28;20190;-78
2021/01/06 12:18:56;;;;;;;29.35;27.05;;;;;;;;;;5033132;28;20596;-80
2021/01/06 12:21:42;;;;;;;30.95;28.65;;;;;;;;;;5033934;28;20626;-80
2021/01/06 12:24:21;;;;;;;27.40;25.40;;;;;;;;;;5034414;28;20201;-80
2021/01/06 12:26:51;;;;;;;30.30;28.05;;;;;;;;;;5034215;28;20202;-82
2021/01/06 12:29:20;;;;;;;30.20;27.80;;;;;;;;;;5034107;28;20190;-80
2021/01/06 12:31:53;;;;;;;29.00;26.73;;;;;;;;;;5034176;28;20193;-79
2021/01/06 12:34:22;;;;;;;29.95;27.65;;;;;;;;;;5034101;28;20229;-76
2021/01/06 12:37:06;;;;;;;29.05;26.85;;;;;;;;;;5033619;28;20221;-78
2021/01/06 12:39:36;;;;;;;29.00;26.75;;;;;;;;;;5034031;28;20189;-78
2021/01/06 12:42:04;;;;;;;30.40;28.05;;;;;;;;;;5034079;28;20193;-77
2021/01/06 12:44:34;;;;;;;28.30;26.23;;;;;;;;;;5034087;28;20196;-79
2021/01/06 12:47:03;;;;;;;31.00;28.60;;;;;;;;;;5033513;28;20194;-78
2021/01/06 12:49:34;;;;;;;28.52;26.48;;;;;;;;;;5033479;28;20243;-79
2021/01/06 12:52:10;;;;;;;29.38;27.17;;;;;;;;;;5032268;28;20234;-80
2021/01/06 12:54:39;;;;;;;31.88;29.30;;;;;;;;;;5033691;28;20243;-79
2021/01/06 12:57:08;;;;;;;30.38;28.00;;;;;;;;;;5032847;28;20189;-79
2021/01/06 12:59:44;;;;;;;28.58;26.55;;;;;;;;;;5032883;28;20235;-79
2021/01/06 13:02:22;;;;;;;28.80;26.70;;;;;;;;;;5033924;28;20194;-76
2021/01/06 13:04:50;;;;;;;28.63;26.52;;;;;;;;;;5033396;28;20189;-77
2021/01/06 13:07:21;;;;;;;31.33;29.05;;;;;;;;;;5033547;28;20224;-76
2021/01/06 13:09:58;;;;;;;28.85;26.75;;;;;;;;;;5033892;28;20246;-76
2021/01/06 13:12:33;;;;;;;30.30;28.10;;;;;;;;;;5033188;28;20320;-77
2021/01/06 13:15:03;;;;;;;29.90;27.60;;;;;;;;;;5033433;28;20238;-76
2021/01/06 13:17:32;;;;;;;30.05;27.65;;;;;;;;;;5033192;28;20191;-77
2021/01/06 13:20:07;;;;;;;28.95;26.85;;;;;;;;;;5033174;28;20193;-84
2021/01/06 13:22:40;;;;;;;28.27;26.27;;;;;;;;;;5033347;28;20661;-78
2021/01/06 13:25:10;;;;;;;29.30;27.20;;;;;;;;;;5033895;28;20283;-92
2021/01/06 13:27:46;;;;;;;28.30;26.20;;;;;;;;;;5033439;28;20196;-77
2021/01/06 13:30:17;;;;;;;29.35;26.90;;;;;;;;;;5033807;28;20208;-77
2021/01/06 13:32:47;;;;;;;28.65;26.55;;;;;;;;;;5033209;28;20200;-77
2021/01/06 13:35:20;;;;;;;29.17;26.98;;;;;;;;;;5033635;28;20193;-77
2021/01/06 13:37:48;;;;;;;30.33;28.02;;;;;;;;;;5032099;28;20256;-77
2021/01/06 13:40:18;;;;;;;30.85;28.60;;;;;;;;;;5033502;28;20276;-77
2021/01/06 13:43:03;;;;;;;29.88;27.85;;;;;;;;;;5033405;28;20193;-77
2021/01/06 13:45:39;;;;;;;29.38;27.15;;;;;;;;;;5032300;28;20201;-76
2021/01/06 13:48:07;;;;;;;31.00;28.75;;;;;;;;;;5033447;28;20189;-77
2021/01/06 13:50:37;;;;;;;29.35;27.15;;;;;;;;;;5032997;28;20209;-78
2021/01/06 13:53:15;;;;;;;30.17;28.08;;;;;;;;;;5033043;28;20251;-77
2021/01/06 13:55:44;;;;;;;30.10;27.80;;;;;;;;;;5033160;28;20193;-77
2021/01/06 13:58:12;;;;;;;29.25;26.90;;;;;;;;;;5033356;28;20544;-76
2021/01/06 14:00:47;;;;;;;29.27;27.00;;;;;;;;;;5031916;28;20197;-77
2021/01/06 14:03:25;;;;;;;29.80;27.50;;;;;;;;;;5034263;28;20209;-77
2021/01/06 14:06:02;;;;;;;28.83;26.63;;;;;;;;;;5036811;28;20208;-77
2021/01/06 14:08:31;;;;;;;30.55;28.23;;;;;;;;;;5036826;28;20205;-77
2021/01/06 14:11:19;;;;;;;30.38;28.17;;;;;;;;;;5035546;28;20240;-77
2021/01/06 14:13:53;;;;;;;28.70;26.60;;;;;;;;;;5036809;28;20217;-77
2021/01/06 14:16:33;;;;;;;29.05;26.95;;;;;;;;;;5036799;28;20193;-78
2021/01/06 14:19:22;;;;;;;29.48;27.38;;;;;;;;;;5036998;28;20193;-78
2021/01/06 14:21:52;;;;;;;29.45;27.25;;;;;;;;;;5036554;28;20659;-78
2021/01/06 14:24:20;;;;;;;28.67;26.65;;;;;;;;;;5036729;28;20258;-76
2021/01/06 14:26:49;;;;;;;29.17;27.08;;;;;;;;;;5036790;28;20202;-75
2021/01/06 14:29:39;;;;;;;28.98;26.83;;;;;;;;;;5036192;28;20592;-76
2021/01/06 14:32:24;;;;;;;28.25;26.20;;;;;;;;;;5021764;28;20201;-82
2021/01/06 14:35:22;;;;;;;29.77;26.98;;;;;;;;;;5026744;28;20228;-80
2021/01/06 14:38:05;;;;;;;29.02;26.85;;;;;;;;;;5036054;28;20224;-77
2021/01/06 14:40:34;;;;;;;28.98;26.85;;;;;;;;;;5036794;28;20193;-77
2021/01/06 14:43:06;;;;;;;30.42;28.13;;;;;;;;;;5036287;28;20204;-76